»·PEaware :: N90WE KYKM-KBFI

N90WE :: KYKM-KBFI

FLIGHT INFORMATION

Flight Status: Arrived
Operator: Privately registered:
United States
More flights under this callsign
Pilot: Anonymous 5456 (5456)
Aircraft: BEECH AIRCRAFT SUPER KING AIR COMMUTER
(BE20)
More flights by this aircraft type
Origin: KYKM Yakima Air Term/Mcallister
United States
Destination: KBFI Boeing Field/King Co Intl
United States
More flights between these airports :: More routes between these airports
Route: +NACHES4 SEA
File this flight plan on PilotEdge
Remarks:
Altitude:
(Current/Filed)
24,000ft
Speed:
(Current/Filed)
280kts
Departed: 16-Dec-17 01:05 PM
Arrived: 16-Dec-17 01:46 PM
Distance/Time
Traveled:
92nm/0:41
Distance/Time
To Go:
Arrived

Flight Plot

Page will automatically refresh every two minutes.

Flight plan parsing failed; only flown route is shown


Map Options




Map Legend


Flown Route
Filed Route
Departure Airport
Arrival Airport
Navaid (VOR, NDB)
Fix

Horizontal Profiles

Position Reports

Time Latitude Longitude Heading Altitude Ground
Speed
16-Dec-17 12:54 46.569592 -120.538087 84 1070ft 0kts
16-Dec-17 12:55 46.569592 -120.538087 84 1070ft 0kts
16-Dec-17 12:56 46.569592 -120.538087 84 1070ft 0kts
16-Dec-17 12:57 46.569592 -120.538087 84 1070ft 0kts
16-Dec-17 12:58 46.569592 -120.538087 84 1070ft 0kts
16-Dec-17 12:59 46.569592 -120.538087 84 1070ft 0kts
16-Dec-17 13:00 46.569592 -120.538087 84 1070ft 0kts
16-Dec-17 13:01 46.569592 -120.538087 85 1070ft 0kts
16-Dec-17 13:02 46.569592 -120.538087 85 1070ft 0kts
16-Dec-17 13:03 46.569592 -120.538087 85 1070ft 0kts
16-Dec-17 13:04 46.569592 -120.538087 85 1070ft 0kts
16-Dec-17 13:05 46.569592 -120.538087 85 1070ft 0kts
16-Dec-17 13:06 46.569592 -120.538087 85 1070ft 0kts
16-Dec-17 13:07 46.569592 -120.538087 85 1070ft 0kts
16-Dec-17 13:08 46.569325 -120.537829 178 1071ft 5kts
16-Dec-17 13:09 46.567354 -120.534317 112 1071ft 18kts
16-Dec-17 13:10 46.566224 -120.531470 175 1071ft 4kts
16-Dec-17 13:11 46.570869 -120.552081 293 1420ft 146kts
16-Dec-17 13:12 46.610654 -120.587507 335 4115ft 181kts
16-Dec-17 13:13 46.654041 -120.616920 335 6727ft 171kts
16-Dec-17 13:14 46.688561 -120.657338 303 9144ft 166kts
16-Dec-17 13:15 46.713627 -120.715183 306 11094ft 181kts
16-Dec-17 13:16 46.741644 -120.776519 307 12909ft 184kts
16-Dec-17 13:17 46.769074 -120.835929 308 14682ft 177kts
16-Dec-17 13:18 46.799311 -120.900793 307 14960ft 220kts
16-Dec-17 13:19 46.834465 -120.976865 307 14943ft 237kts
16-Dec-17 13:20 46.869311 -121.052386 308 15647ft 215kts
16-Dec-17 13:21 46.893338 -121.104769 309 16708ft 194kts
16-Dec-17 13:22 46.926619 -121.177138 309 18053ft 182kts
16-Dec-17 13:23 46.953918 -121.236671 309 19099ft 176kts
16-Dec-17 13:24 46.975605 -121.284082 310 19890ft 173kts
16-Dec-17 13:25 47.001771 -121.341433 310 20802ft 171kts
16-Dec-17 13:26 47.027463 -121.397824 310 21654ft 168kts
16-Dec-17 13:27 47.052815 -121.453600 310 22347ft 171kts
16-Dec-17 13:28 47.081226 -121.515818 309 21757ft 215kts
16-Dec-17 13:29 47.119107 -121.599549 308 20098ft 251kts
16-Dec-17 13:30 47.147090 -121.661851 307 18840ft 250kts
16-Dec-17 13:31 47.183676 -121.743305 306 16965ft 252kts
16-Dec-17 13:32 47.221180 -121.826985 306 15050ft 254kts
16-Dec-17 13:33 47.258374 -121.910151 305 13157ft 256kts
16-Dec-17 13:34 47.308865 -121.976010 334 11225ft 261kts
16-Dec-17 13:35 47.372740 -122.013607 335 9325ft 258kts
16-Dec-17 13:36 47.432890 -122.061341 335 7411ft 260kts
16-Dec-17 13:37 47.493173 -122.109132 335 5546ft 268kts
16-Dec-17 13:38 47.553586 -122.154336 335 4018ft 251kts
16-Dec-17 13:39 47.610659 -122.195726 335 3540ft 244kts
16-Dec-17 13:40 47.661150 -122.230468 335 2997ft 220kts
16-Dec-17 13:41 47.692432 -122.294198 286 3001ft 211kts
16-Dec-17 13:42 47.709938 -122.374620 286 3000ft 212kts
16-Dec-17 13:43 47.727473 -122.455840 286 2999ft 211kts
16-Dec-17 13:44 47.730848 -122.535657 215 2997ft 202kts
16-Dec-17 13:45 47.697971 -122.508871 127 3042ft 144kts
16-Dec-17 13:46 47.676684 -122.462824 126 2999ft 133kts
16-Dec-17 13:47 47.656481 -122.418858 127 3000ft 133kts
16-Dec-17 13:48 47.629316 -122.387038 149 2626ft 126kts
16-Dec-17 13:49 47.599809 -122.360741 151 1202ft 125kts
16-Dec-17 13:50 47.568520 -122.334762 151 667ft 136kts
16-Dec-17 13:51 47.541419 -122.312179 152 76ft 95kts
16-Dec-17 13:52 47.530603 -122.302350 103 18ft 3kts
16-Dec-17 13:53 47.530801 -122.300837 54 18ft 7kts
16-Dec-17 13:54 47.531124 -122.298973 62 19ft 0kts

Navigation Log

Ident Type
Flight plan parsing failed, navigation log unavailable